createdAt,value
2019-05-25T00:00:41.228Z,100516.62
2019-05-25T00:03:12.275Z,100512.53
2019-05-25T00:05:43.256Z,100513.62
2019-05-25T00:08:14.517Z,100522.95
2019-05-25T00:10:45.702Z,100517.53
2019-05-25T00:13:16.772Z,100516.84
2019-05-25T00:15:47.843Z,100515.74
2019-05-25T00:18:19.126Z,100513.47
2019-05-25T00:20:50.180Z,100516.39
2019-05-25T00:23:21.166Z,100523.66
2019-05-25T00:25:52.360Z,100522.41
2019-05-25T00:28:24.288Z,100519.77
2019-05-25T00:30:55.412Z,100522.64
2019-05-25T00:33:26.757Z,100527.58
2019-05-25T00:35:57.858Z,100532.16
2019-05-25T00:38:29.032Z,100528.45
2019-05-25T00:41:00.347Z,100526.82
2019-05-25T00:43:31.709Z,100520.25
2019-05-25T00:46:03.015Z,100521.85
2019-05-25T00:48:34.044Z,100518.86
2019-05-25T00:51:06.228Z,100528.66
2019-05-25T00:53:37.248Z,100519.27
2019-05-25T00:56:08.277Z,100524.47
2019-05-25T00:58:40.227Z,100514.97
2019-05-25T01:01:12.326Z,100519.80
2019-05-25T01:03:43.613Z,100528.09
2019-05-25T01:06:14.632Z,100529.63
2019-05-25T01:08:46.558Z,100532.55
2019-05-25T01:11:17.599Z,100539.19
2019-05-25T01:13:48.594Z,100538.17
2019-05-25T01:16:19.803Z,100542.22
2019-05-25T01:18:50.784Z,100539.05
2019-05-25T01:21:22.034Z,100537.25
2019-05-25T01:23:54.079Z,100532.92
2019-05-25T01:26:28.140Z,100538.27
2019-05-25T01:28:59.113Z,100533.57
2019-05-25T01:31:30.158Z,100533.86
2019-05-25T01:34:02.856Z,100534.89
2019-05-25T01:36:33.957Z,100538.89
2019-05-25T01:39:07.503Z,100545.98
2019-05-25T01:41:38.846Z,100546.45
2019-05-25T01:44:10.165Z,100551.09
2019-05-25T01:46:41.419Z,100552.06
2019-05-25T01:49:12.773Z,100550.83
2019-05-25T01:51:43.776Z,100544.04
2019-05-25T01:54:15.073Z,100547.33
2019-05-25T01:56:46.377Z,100543.55
2019-05-25T01:59:17.689Z,100542.03
2019-05-25T02:01:48.673Z,100543.08
2019-05-25T02:04:19.810Z,100541.17
2019-05-25T02:06:50.831Z,100541.95
2019-05-25T02:09:22.702Z,100554.16
2019-05-25T02:11:54.078Z,100541.87
2019-05-25T02:14:25.131Z,100541.11
2019-05-25T02:16:56.141Z,100556.80
2019-05-25T02:19:27.760Z,100559.45
2019-05-25T02:21:59.081Z,100553.20
2019-05-25T02:24:30.498Z,100563.06
2019-05-25T02:27:02.014Z,100556.03
2019-05-25T02:29:33.212Z,100551.02
2019-05-25T02:32:04.578Z,100558.32
2019-05-25T02:34:36.396Z,100560.97
2019-05-25T02:37:07.451Z,100557.83
2019-05-25T02:39:39.524Z,100559.84
2019-05-25T02:42:10.828Z,100556.72
2019-05-25T02:44:42.078Z,100554.08
2019-05-25T02:47:13.336Z,100555.40
2019-05-25T02:49:44.944Z,100548.09
2019-05-25T02:52:16.009Z,100551.66
2019-05-25T02:54:47.386Z,100547.73
2019-05-25T02:57:18.751Z,100543.76
2019-05-25T02:59:49.995Z,100553.76
2019-05-25T03:02:22.389Z,100557.00
2019-05-25T03:04:53.873Z,100557.00
2019-05-25T03:07:25.043Z,100547.45
2019-05-25T03:09:56.740Z,100566.64
2019-05-25T03:12:27.905Z,100562.47
2019-05-25T03:14:59.048Z,100555.67
2019-05-25T03:17:30.121Z,100562.87
2019-05-25T03:20:01.997Z,100568.08
2019-05-25T03:22:33.176Z,100573.07
2019-05-25T03:25:06.046Z,100582.94
2019-05-25T03:27:38.719Z,100578.56
2019-05-25T03:30:10.077Z,100579.43
2019-05-25T03:32:41.126Z,100581.22
2019-05-25T03:35:12.262Z,100578.55
2019-05-25T03:37:43.281Z,100583.58
2019-05-25T03:40:14.355Z,100585.95
2019-05-25T03:42:45.584Z,100583.59
2019-05-25T03:45:17.180Z,100584.53
2019-05-25T03:47:48.256Z,100585.92
2019-05-25T03:50:19.689Z,100593.70
2019-05-25T03:52:50.940Z,100588.32
2019-05-25T03:55:22.128Z,100586.88
2019-05-25T03:57:53.407Z,100585.39
2019-05-25T04:00:33.069Z,100580.81
2019-05-25T04:03:04.546Z,100582.34
2019-05-25T04:05:38.293Z,100583.78
2019-05-25T04:08:09.361Z,100581.50
2019-05-25T04:10:40.413Z,100583.30
2019-05-25T04:13:11.896Z,100584.14
2019-05-25T04:15:42.925Z,100587.64
2019-05-25T04:18:13.902Z,100587.84
2019-05-25T04:20:44.990Z,100589.73
2019-05-25T04:23:16.026Z,100589.92
2019-05-25T04:25:47.785Z,100592.58
2019-05-25T04:28:18.813Z,100598.53
2019-05-25T04:30:49.857Z,100593.14
2019-05-25T04:33:21.238Z,100602.30
2019-05-25T04:35:53.257Z,100599.56
2019-05-25T04:38:24.235Z,100598.52
2019-05-25T04:40:55.360Z,100601.73
2019-05-25T04:43:26.388Z,100600.81
2019-05-25T04:45:58.235Z,100601.64
2019-05-25T04:48:29.278Z,100614.99
2019-05-25T04:51:00.297Z,100612.45
2019-05-25T04:53:31.617Z,100608.09
2019-05-25T04:56:03.004Z,100597.28
2019-05-25T04:58:33.985Z,100608.00
2019-05-25T05:01:05.151Z,100598.32
2019-05-25T05:03:36.457Z,100601.86
2019-05-25T05:06:08.589Z,100601.52
2019-05-25T05:08:39.577Z,100600.30
2019-05-25T05:11:10.879Z,100608.44
2019-05-25T05:13:41.882Z,100608.84
2019-05-25T05:16:13.271Z,100623.23
2019-05-25T05:18:44.300Z,100618.52
2019-05-25T05:21:15.428Z,100624.75
2019-05-25T05:23:46.492Z,100614.91
2019-05-25T05:26:17.501Z,100621.05
2019-05-25T05:28:49.278Z,100623.22
2019-05-25T05:31:23.664Z,100637.05
2019-05-25T05:33:53.600Z,100642.66
2019-05-25T05:36:25.397Z,100634.95
2019-05-25T05:39:00.252Z,100635.62
2019-05-25T05:41:32.451Z,100637.64
2019-05-25T05:44:05.075Z,100634.78
2019-05-25T05:46:37.737Z,100630.41
2019-05-25T05:49:10.461Z,100630.52
2019-05-25T05:51:41.661Z,100632.89
2019-05-25T05:54:12.628Z,100631.16
2019-05-25T05:56:43.810Z,100639.12
2019-05-25T05:59:15.044Z,100638.16
2019-05-25T06:01:46.637Z,100649.53
2019-05-25T06:04:18.085Z,100645.00
2019-05-25T06:06:49.428Z,100641.19
2019-05-25T06:09:21.167Z,100639.03
2019-05-25T06:11:52.177Z,100632.75
2019-05-25T06:14:23.529Z,100639.03
2019-05-25T06:16:54.572Z,100637.58
2019-05-25T06:19:25.495Z,100637.99
2019-05-25T06:21:56.780Z,100652.19
2019-05-25T06:24:28.762Z,100649.17
2019-05-25T06:26:59.807Z,100651.91
2019-05-25T06:29:30.829Z,100653.91
2019-05-25T06:32:02.075Z,100649.35
2019-05-25T06:34:33.675Z,100658.94
2019-05-25T06:37:04.874Z,100660.53
2019-05-25T06:39:36.995Z,100653.44
2019-05-25T06:42:08.052Z,100660.45
2019-05-25T06:44:39.049Z,100666.05
2019-05-25T06:47:10.349Z,100661.75
2019-05-25T06:49:42.406Z,100670.30
2019-05-25T06:52:13.482Z,100671.98
2019-05-25T06:54:45.443Z,100676.92
2019-05-25T06:57:16.700Z,100673.88
2019-05-25T06:59:47.691Z,100672.27
2019-05-25T07:02:22.451Z,100678.98
2019-05-25T07:04:52.029Z,100678.63
2019-05-25T07:07:23.254Z,100669.41
2019-05-25T07:09:54.536Z,100672.34
2019-05-25T07:12:26.222Z,100674.72
2019-05-25T07:14:57.626Z,100676.80
2019-05-25T07:17:28.625Z,100667.78
2019-05-25T07:20:00.122Z,100664.02
2019-05-25T07:22:31.404Z,100674.42
2019-05-25T07:25:02.689Z,100677.47
2019-05-25T07:27:34.242Z,100675.50
2019-05-25T07:30:05.837Z,100678.39
2019-05-25T07:32:38.222Z,100679.55
2019-05-25T07:35:09.653Z,100679.00
2019-05-25T07:37:40.759Z,100678.28
2019-05-25T07:40:12.102Z,100688.94
2019-05-25T07:42:43.042Z,100679.66
2019-05-25T07:45:14.673Z,100695.94
2019-05-25T07:47:45.713Z,100690.34
2019-05-25T07:50:17.147Z,100687.03
2019-05-25T07:52:48.191Z,100692.70
2019-05-25T07:55:19.595Z,100691.17
2019-05-25T07:57:50.563Z,100695.09
2019-05-25T08:00:21.791Z,100699.92
2019-05-25T08:02:53.559Z,100689.86
2019-05-25T08:05:24.574Z,100698.77
2019-05-25T08:07:55.957Z,100698.30
2019-05-25T08:10:27.052Z,100703.67
2019-05-25T08:12:58.068Z,100697.13
2019-05-25T08:15:29.216Z,100703.95
2019-05-25T08:18:00.445Z,100704.43
2019-05-25T08:20:32.385Z,100713.41
2019-05-25T08:23:03.487Z,100711.03
2019-05-25T08:25:34.816Z,100708.27
2019-05-25T08:28:07.239Z,100709.47
2019-05-25T08:30:38.668Z,100712.86
2019-05-25T08:33:09.817Z,100703.99
2019-05-25T08:35:41.205Z,100711.86
2019-05-25T08:38:12.143Z,100710.03
2019-05-25T08:40:43.483Z,100718.94
2019-05-25T08:43:14.512Z,100712.41
2019-05-25T08:45:45.551Z,100716.84
2019-05-25T08:48:16.903Z,100717.06
2019-05-25T08:50:48.369Z,100725.17
2019-05-25T08:53:31.150Z,100717.48
2019-05-25T08:55:52.250Z,100722.27
2019-05-25T08:58:23.331Z,100725.22
2019-05-25T09:00:54.413Z,100734.09
2019-05-25T09:03:25.610Z,100738.20
2019-05-25T09:05:56.662Z,100725.64
2019-05-25T09:08:28.681Z,100724.39
2019-05-25T09:11:00.299Z,100736.39
2019-05-25T09:13:31.425Z,100735.60
2019-05-25T09:16:02.512Z,100733.40
2019-05-25T09:18:33.560Z,100733.33
2019-05-25T09:21:05.247Z,100734.45
2019-05-25T09:23:36.747Z,100733.34
2019-05-25T09:26:07.714Z,100741.58
2019-05-25T09:28:39.617Z,100736.38
2019-05-25T09:31:10.795Z,100739.19
2019-05-25T09:33:42.271Z,100742.37
2019-05-25T09:36:14.729Z,100742.91
2019-05-25T09:38:46.834Z,100739.91
2019-05-25T09:41:20.621Z,100746.27
2019-05-25T09:43:51.942Z,100735.45
2019-05-25T09:46:22.940Z,100745.65
2019-05-25T09:48:54.114Z,100745.02
2019-05-25T09:51:25.146Z,100748.27
2019-05-25T09:53:56.511Z,100746.61
2019-05-25T09:56:27.598Z,100744.49
2019-05-25T09:58:58.635Z,100753.53
2019-05-25T10:01:29.676Z,100752.03
2019-05-25T10:04:00.999Z,100752.47
2019-05-25T10:06:32.099Z,100745.77
2019-05-25T10:09:05.414Z,100737.17
2019-05-25T10:11:36.991Z,100743.30
2019-05-25T10:14:08.808Z,100746.82
2019-05-25T10:16:40.504Z,100739.55
2019-05-25T10:19:12.295Z,100744.20
2019-05-25T10:21:43.332Z,100739.58
2019-05-25T10:24:14.700Z,100743.55
2019-05-25T10:26:46.128Z,100738.06
2019-05-25T10:29:17.752Z,100741.59
2019-05-25T10:31:49.220Z,100739.66
2019-05-25T10:34:20.735Z,100744.09
2019-05-25T10:36:51.882Z,100744.23
2019-05-25T10:39:22.867Z,100747.90
2019-05-25T10:41:54.191Z,100752.36
2019-05-25T10:44:25.947Z,100751.77
2019-05-25T10:46:56.973Z,100755.64
2019-05-25T10:49:28.970Z,100754.41
2019-05-25T10:52:00.269Z,100754.43
2019-05-25T10:54:32.247Z,100760.85
2019-05-25T10:57:03.406Z,100753.28
2019-05-25T10:59:34.737Z,100757.87
2019-05-25T11:02:05.963Z,100752.29
2019-05-25T11:04:37.296Z,100750.45
2019-05-25T11:07:08.373Z,100750.91
2019-05-25T11:09:40.155Z,100748.72
2019-05-25T11:12:11.364Z,100745.66
2019-05-25T11:14:42.711Z,100733.14
2019-05-25T11:17:13.724Z,100733.14
2019-05-25T11:19:45.317Z,100739.75
2019-05-25T11:22:16.345Z,100735.00
2019-05-25T11:24:47.642Z,100739.82
2019-05-25T11:27:19.359Z,100737.87
2019-05-25T11:29:50.405Z,100737.73
2019-05-25T11:32:21.377Z,100735.12
2019-05-25T11:34:53.712Z,100737.99
2019-05-25T11:37:24.694Z,100741.58
2019-05-25T11:39:55.781Z,100736.39
2019-05-25T11:42:27.201Z,100739.50
2019-05-25T11:44:58.149Z,100734.09
2019-05-25T11:47:29.517Z,100727.12
2019-05-25T11:50:00.591Z,100731.10
2019-05-25T11:52:32.004Z,100735.58
2019-05-25T11:55:03.017Z,100735.53
2019-05-25T11:57:34.322Z,100719.89
2019-05-25T12:00:07.167Z,100720.65
2019-05-25T12:02:38.207Z,100724.95
2019-05-25T12:05:09.557Z,100722.60
2019-05-25T12:07:43.736Z,100722.82
2019-05-25T12:10:13.694Z,100728.41
2019-05-25T12:12:45.003Z,100726.73
2019-05-25T12:15:17.162Z,100723.64
2019-05-25T12:17:48.504Z,100720.61
2019-05-25T12:20:19.987Z,100721.98
2019-05-25T12:22:52.018Z,100721.98
2019-05-25T12:25:23.062Z,100711.09
2019-05-25T12:27:54.039Z,100713.42
2019-05-25T12:30:39.740Z,100709.08
2019-05-25T12:32:58.310Z,100718.24
2019-05-25T12:35:29.327Z,100722.63
2019-05-25T12:38:00.821Z,100720.14
2019-05-25T12:40:32.313Z,100726.28
2019-05-25T12:43:03.385Z,100730.72
2019-05-25T12:45:34.674Z,100726.66
2019-05-25T12:48:05.759Z,100725.16
2019-05-25T12:50:36.781Z,100722.98
2019-05-25T12:53:08.925Z,100726.69
2019-05-25T12:55:41.243Z,100726.00
2019-05-25T12:58:13.330Z,100721.95
2019-05-25T13:00:55.597Z,100716.58
2019-05-25T13:03:17.694Z,100721.06
2019-05-25T13:05:48.678Z,100723.56
2019-05-25T13:08:19.805Z,100710.41
2019-05-25T13:10:50.864Z,100717.00
2019-05-25T13:13:21.915Z,100714.58
2019-05-25T13:15:52.953Z,100710.72
2019-05-25T13:18:23.890Z,100711.52
2019-05-25T13:20:55.221Z,100711.23
2019-05-25T13:23:26.249Z,100703.13
2019-05-25T13:25:57.229Z,100712.61
2019-05-25T13:28:28.200Z,100719.52
2019-05-25T13:31:11.438Z,100718.23
2019-05-25T13:33:32.116Z,100718.33
2019-05-25T13:36:03.100Z,100722.09
2019-05-25T13:38:34.053Z,100715.52
2019-05-25T13:41:05.199Z,100716.60
2019-05-25T13:43:36.375Z,100710.25
2019-05-25T13:46:07.395Z,100717.73
2019-05-25T13:48:38.748Z,100719.02
2019-05-25T13:51:09.826Z,100722.44
2019-05-25T13:53:41.165Z,100722.73
2019-05-25T13:56:12.209Z,100716.91
2019-05-25T13:58:43.169Z,100710.16
2019-05-25T14:01:27.425Z,100725.30
2019-05-25T14:03:47.300Z,100716.59
2019-05-25T14:06:19.848Z,100715.72
2019-05-25T14:08:51.249Z,100718.52
2019-05-25T14:11:22.563Z,100721.48
2019-05-25T14:13:53.771Z,100722.60
2019-05-25T14:16:25.284Z,100715.26
2019-05-25T14:18:56.217Z,100720.32
2019-05-25T14:21:27.313Z,100724.81
2019-05-25T14:23:58.277Z,100717.98
2019-05-25T14:26:29.206Z,100726.58
2019-05-25T14:29:00.158Z,100719.06
2019-05-25T14:31:44.437Z,100717.09
2019-05-25T14:34:03.774Z,100718.09
2019-05-25T14:36:34.790Z,100714.50
2019-05-25T14:39:07.858Z,100723.84
2019-05-25T14:41:38.923Z,100721.34
2019-05-25T14:44:10.136Z,100713.00
2019-05-25T14:46:41.385Z,100719.44
2019-05-25T14:49:12.376Z,100720.41
2019-05-25T14:51:43.804Z,100726.59
2019-05-25T14:54:16.034Z,100733.62
2019-05-25T14:56:47.245Z,100710.35
2019-05-25T14:59:18.184Z,100719.48
2019-05-25T15:02:01.855Z,100723.83
2019-05-25T15:04:22.490Z,100716.09
2019-05-25T15:06:53.960Z,100712.73
2019-05-25T15:09:25.170Z,100723.14
2019-05-25T15:11:56.152Z,100714.42
2019-05-25T15:14:27.383Z,100725.91
2019-05-25T15:16:58.419Z,100717.70
2019-05-25T15:19:29.409Z,100724.64
2019-05-25T15:22:00.589Z,100706.09
2019-05-25T15:24:31.811Z,100720.50
2019-05-25T15:27:02.921Z,100716.85
2019-05-25T15:29:34.041Z,100706.49
2019-05-25T15:32:18.730Z,100708.66
2019-05-25T15:34:38.234Z,100704.85
2019-05-25T15:37:09.481Z,100699.41
2019-05-25T15:39:40.460Z,100700.67
2019-05-25T15:42:11.663Z,100696.34
2019-05-25T15:44:42.667Z,100702.20
2019-05-25T15:47:13.634Z,100707.33
2019-05-25T15:49:44.645Z,100701.56
2019-05-25T15:52:15.945Z,100706.11
2019-05-25T15:54:47.300Z,100702.08
2019-05-25T15:57:18.391Z,100693.58
2019-05-25T15:59:49.609Z,100693.58
2019-05-25T16:02:35.768Z,100708.02
2019-05-25T16:04:53.273Z,100697.92
2019-05-25T16:07:24.243Z,100700.88
2019-05-25T16:09:55.527Z,100698.45
2019-05-25T16:12:26.872Z,100698.91
2019-05-25T16:14:58.104Z,100702.22
2019-05-25T16:17:29.341Z,100698.91
2019-05-25T16:20:00.410Z,100694.91
2019-05-25T16:22:31.875Z,100696.75
2019-05-25T16:25:03.061Z,100700.28
2019-05-25T16:27:34.287Z,100692.71
2019-05-25T16:30:05.678Z,100696.11
2019-05-25T16:33:07.174Z,100698.78
2019-05-25T16:35:10.067Z,100694.93
2019-05-25T16:37:41.701Z,100699.93
2019-05-25T16:40:12.859Z,100693.45
2019-05-25T16:42:43.977Z,100691.09
2019-05-25T16:45:15.215Z,100690.81
2019-05-25T16:47:46.586Z,100699.55
2019-05-25T16:50:17.681Z,100692.25
2019-05-25T16:52:50.142Z,100693.22
2019-05-25T16:55:21.534Z,100696.96
2019-05-25T16:57:52.841Z,100697.70
2019-05-25T17:00:28.055Z,100696.75
2019-05-25T17:02:59.801Z,100693.77
2019-05-25T17:05:31.059Z,100693.09
2019-05-25T17:08:02.126Z,100694.41
2019-05-25T17:10:33.203Z,100694.34
2019-05-25T17:13:04.294Z,100694.55
2019-05-25T17:15:35.506Z,100688.43
2019-05-25T17:18:06.550Z,100692.58
2019-05-25T17:20:37.758Z,100691.63
2019-05-25T17:23:09.800Z,100688.25
2019-05-25T17:25:40.735Z,100690.91
2019-05-25T17:28:12.832Z,100686.53
2019-05-25T17:30:45.154Z,100681.84
2019-05-25T17:33:16.185Z,100683.25
2019-05-25T17:35:47.352Z,100683.80
2019-05-25T17:38:18.872Z,100682.81
2019-05-25T17:40:50.449Z,100684.84
2019-05-25T17:43:21.593Z,100689.33
2019-05-25T17:45:52.545Z,100685.53
2019-05-25T17:48:24.162Z,100684.23
2019-05-25T17:50:55.321Z,100685.13
2019-05-25T17:53:26.567Z,100682.94
2019-05-25T17:55:57.698Z,100684.25
2019-05-25T17:58:28.896Z,100688.33
2019-05-25T18:01:00.855Z,100685.23
2019-05-25T18:03:31.909Z,100681.39
2019-05-25T18:06:03.305Z,100686.16
2019-05-25T18:08:34.685Z,100683.64
2019-05-25T18:11:05.932Z,100677.96
2019-05-25T18:13:37.839Z,100685.41
2019-05-25T18:16:08.839Z,100677.92
2019-05-25T18:18:40.097Z,100679.95
2019-05-25T18:21:11.205Z,100680.52
2019-05-25T18:23:42.479Z,100680.39
2019-05-25T18:26:13.561Z,100683.44
2019-05-25T18:28:44.567Z,100687.89
2019-05-25T18:31:16.326Z,100685.54
2019-05-25T18:33:47.342Z,100681.82
2019-05-25T18:36:18.538Z,100685.23
2019-05-25T18:38:50.951Z,100684.27
2019-05-25T18:41:22.147Z,100681.16
2019-05-25T18:43:53.509Z,100688.13
2019-05-25T18:46:24.461Z,100684.47
2019-05-25T18:48:55.730Z,100679.59
2019-05-25T18:51:26.684Z,100679.36
2019-05-25T18:53:58.293Z,100687.19
2019-05-25T18:56:29.371Z,100695.12
2019-05-25T18:59:00.388Z,100695.05
2019-05-25T19:01:31.415Z,100682.61
2019-05-25T19:04:03.081Z,100693.20
2019-05-25T19:06:34.370Z,100687.68
2019-05-25T19:09:07.895Z,100688.20
2019-05-25T19:11:39.165Z,100690.17
2019-05-25T19:14:10.395Z,100696.73
2019-05-25T19:16:41.434Z,100705.77
2019-05-25T19:19:12.414Z,100704.44
2019-05-25T19:21:43.428Z,100708.59
2019-05-25T19:24:14.483Z,100708.23
2019-05-25T19:26:45.523Z,100715.63
2019-05-25T19:29:16.546Z,100719.17
2019-05-25T19:31:47.534Z,100721.45
2019-05-25T19:34:18.529Z,100728.72
2019-05-25T19:36:49.641Z,100730.17
2019-05-25T19:39:21.615Z,100727.48
2019-05-25T19:41:52.786Z,100719.45
2019-05-25T19:44:23.762Z,100730.79
2019-05-25T19:46:54.716Z,100729.33
2019-05-25T19:49:25.729Z,100735.91
2019-05-25T19:51:56.958Z,100733.13
2019-05-25T19:54:32.055Z,100731.97
2019-05-25T19:57:03.079Z,100726.75
2019-05-25T19:59:34.125Z,100736.44
2019-05-25T20:02:05.526Z,100738.57
2019-05-25T20:04:36.817Z,100732.06
2019-05-25T20:07:07.865Z,100736.39
2019-05-25T20:09:39.129Z,100735.65
2019-05-25T20:12:10.488Z,100737.73
2019-05-25T20:14:41.610Z,100741.98
2019-05-25T20:17:13.321Z,100741.98
2019-05-25T20:19:44.905Z,100741.23
2019-05-25T20:22:16.332Z,100745.55
2019-05-25T20:24:47.388Z,100740.09
2019-05-25T20:27:18.885Z,100746.88
2019-05-25T20:29:49.864Z,100734.41
2019-05-25T20:32:22.027Z,100737.83
2019-05-25T20:34:53.269Z,100735.59
2019-05-25T20:37:25.156Z,100730.91
2019-05-25T20:39:56.730Z,100732.03
2019-05-25T20:42:27.713Z,100731.59
2019-05-25T20:44:59.193Z,100731.59
2019-05-25T20:47:30.775Z,100732.56
2019-05-25T20:50:02.843Z,100734.84
2019-05-25T20:52:35.253Z,100731.42
2019-05-25T20:55:06.383Z,100732.27
2019-05-25T20:57:37.452Z,100727.08
2019-05-25T21:00:08.795Z,100727.88
2019-05-25T21:02:39.931Z,100722.44
2019-05-25T21:05:11.252Z,100720.13
2019-05-25T21:07:42.469Z,100722.44
2019-05-25T21:10:14.168Z,100719.73
2019-05-25T21:12:45.517Z,100712.91
2019-05-25T21:15:17.277Z,100716.09
2019-05-25T21:17:48.804Z,100710.45
2019-05-25T21:20:19.960Z,100706.16
2019-05-25T21:22:50.929Z,100711.81
2019-05-25T21:25:23.465Z,100716.80
2019-05-25T21:27:55.006Z,100721.98
2019-05-25T21:30:26.387Z,100720.89
2019-05-25T21:32:57.755Z,100718.41
2019-05-25T21:35:28.834Z,100723.33
2019-05-25T21:37:59.876Z,100727.28
2019-05-25T21:40:31.059Z,100721.28
2019-05-25T21:43:02.389Z,100721.16
2019-05-25T21:45:33.471Z,100728.52
2019-05-25T21:48:04.911Z,100727.45
2019-05-25T21:50:36.384Z,100727.03
2019-05-25T21:53:11.007Z,100729.64
2019-05-25T21:55:40.351Z,100729.64
2019-05-25T21:58:11.833Z,100724.61
2019-05-25T22:00:43.425Z,100722.19
2019-05-25T22:03:14.520Z,100721.48
2019-05-25T22:05:45.783Z,100721.47
2019-05-25T22:08:16.986Z,100721.70
2019-05-25T22:10:48.457Z,100716.95
2019-05-25T22:13:27.723Z,100718.77
2019-05-25T22:15:53.585Z,100710.05
2019-05-25T22:18:25.015Z,100710.92
2019-05-25T22:20:56.069Z,100706.83
2019-05-25T22:23:27.197Z,100700.30
2019-05-25T22:25:58.502Z,100697.55
2019-05-25T22:28:43.725Z,100691.69
2019-05-25T22:31:02.974Z,100691.69
2019-05-25T22:33:33.906Z,100687.97
2019-05-25T22:36:04.942Z,100685.61
2019-05-25T22:38:36.142Z,100682.59
2019-05-25T22:41:07.112Z,100679.09
2019-05-25T22:43:38.051Z,100674.15
2019-05-25T22:46:09.032Z,100675.13
2019-05-25T22:48:40.617Z,100674.56
2019-05-25T22:51:11.831Z,100668.30
2019-05-25T22:53:43.105Z,100673.23
2019-05-25T22:56:14.343Z,100675.69
2019-05-25T22:58:45.297Z,100667.61
2019-05-25T23:01:16.643Z,100672.27
2019-05-25T23:03:47.888Z,100664.89
2019-05-25T23:06:18.924Z,100661.58
2019-05-25T23:08:49.909Z,100666.05
2019-05-25T23:13:57.569Z,100672.55
2019-05-25T23:16:28.670Z,100665.08
2019-05-25T23:18:59.621Z,100655.52
2019-05-25T23:21:30.939Z,100657.30
2019-05-25T23:24:02.449Z,100663.75
2019-05-25T23:26:33.432Z,100653.58
2019-05-25T23:29:05.593Z,100650.48
2019-05-25T23:31:36.686Z,100652.36
2019-05-25T23:34:07.726Z,100655.38
2019-05-25T23:36:38.689Z,100652.77
2019-05-25T23:39:09.912Z,100644.32
2019-05-25T23:41:41.379Z,100641.66
2019-05-25T23:44:14.717Z,100645.84
2019-05-25T23:46:45.783Z,100638.88
2019-05-25T23:49:18.065Z,100640.92
2019-05-25T23:51:49.100Z,100640.45
2019-05-25T23:54:20.414Z,100636.40
2019-05-25T23:56:51.452Z,100642.09
2019-05-25T23:59:22.512Z,100634.44
